createdAt,value
2022-10-19T00:00:25.346Z,3.63
2022-10-19T00:02:51.908Z,3.92
2022-10-19T00:05:18.451Z,4.45
2022-10-19T00:07:44.918Z,4.32
2022-10-19T00:10:11.651Z,3.70
2022-10-19T00:12:38.823Z,3.47
2022-10-19T00:15:06.501Z,4.00
2022-10-19T00:17:34.776Z,3.95
2022-10-19T00:20:01.430Z,3.58
2022-10-19T00:22:27.867Z,3.47
2022-10-19T00:24:56.858Z,3.20
2022-10-19T00:27:23.355Z,3.38
2022-10-19T00:29:49.748Z,3.20
2022-10-19T00:32:16.146Z,3.30
2022-10-19T00:34:42.615Z,3.92
2022-10-19T00:37:09.067Z,3.40
2022-10-19T00:39:35.482Z,3.75
2022-10-19T00:42:01.943Z,4.03
2022-10-19T00:44:28.447Z,4.32
2022-10-19T00:46:59.082Z,4.03
2022-10-19T00:49:33.203Z,3.78
2022-10-19T00:52:06.114Z,3.90
2022-10-19T00:54:33.814Z,3.70
2022-10-19T00:57:00.570Z,3.85
2022-10-19T00:59:31.741Z,3.72
2022-10-19T01:01:59.011Z,4.00
2022-10-19T01:04:27.089Z,4.18
2022-10-19T01:06:54.818Z,3.92
2022-10-19T01:09:21.418Z,4.43
2022-10-19T01:11:53.758Z,4.30
2022-10-19T01:14:38.474Z,4.43
2022-10-19T01:17:36.151Z,4.93
2022-10-19T01:20:05.824Z,4.63
2022-10-19T01:22:46.680Z,4.43
2022-10-19T01:28:29.722Z,3.38
2022-10-19T01:31:02.068Z,4.03
2022-10-19T01:33:34.576Z,4.38
2022-10-19T01:36:26.986Z,3.92
2022-10-19T01:39:30.620Z,3.53
2022-10-19T01:42:01.428Z,3.67
2022-10-19T01:44:31.363Z,3.47
2022-10-19T01:47:07.558Z,3.55
2022-10-19T01:49:51.189Z,3.72
2022-10-19T01:52:20.712Z,3.50
2022-10-19T01:54:51.257Z,3.40
2022-10-19T01:57:23.948Z,3.50
2022-10-19T01:59:51.474Z,3.40
2022-10-19T02:02:19.825Z,3.38
2022-10-19T02:04:48.963Z,3.50
2022-10-19T02:07:16.252Z,3.67
2022-10-19T02:09:42.740Z,3.75
2022-10-19T02:12:11.158Z,3.55
2022-10-19T02:14:43.010Z,3.33
2022-10-19T02:17:14.150Z,3.70
2022-10-19T02:19:42.854Z,3.60
2022-10-19T02:24:36.161Z,3.78
2022-10-19T02:27:05.556Z,3.45
2022-10-19T02:29:34.417Z,3.90
2022-10-19T02:32:01.413Z,3.88
2022-10-19T02:34:28.192Z,3.75
2022-10-19T02:36:55.880Z,4.10
2022-10-19T02:39:22.821Z,3.83
2022-10-19T02:41:57.363Z,3.50
2022-10-19T02:44:31.724Z,3.90
2022-10-19T02:47:06.672Z,3.67
2022-10-19T02:49:35.328Z,3.45
2022-10-19T02:52:05.703Z,3.20
2022-10-19T02:54:32.601Z,3.13
2022-10-19T02:56:59.355Z,3.33
2022-10-19T02:59:26.199Z,3.60
2022-10-19T03:01:52.836Z,3.47
2022-10-19T03:04:19.439Z,3.30
2022-10-19T03:06:45.965Z,3.30
2022-10-19T03:09:12.403Z,3.45
2022-10-19T03:11:38.974Z,3.30
2022-10-19T03:14:05.394Z,3.25
2022-10-19T03:16:31.868Z,3.50
2022-10-19T03:18:58.392Z,3.25
2022-10-19T03:21:24.792Z,3.33
2022-10-19T03:23:51.250Z,3.10
2022-10-19T03:26:18.268Z,3.38
2022-10-19T03:28:46.926Z,3.45
2022-10-19T03:31:13.425Z,3.38
2022-10-19T03:33:39.935Z,3.20
2022-10-19T03:36:34.265Z,2.90
2022-10-19T03:39:03.942Z,3.20
2022-10-19T03:41:33.054Z,3.95
2022-10-19T03:46:32.199Z,3.17
2022-10-19T03:48:58.665Z,3.22
2022-10-19T03:51:28.179Z,3.13
2022-10-19T03:53:56.412Z,3.20
2022-10-19T03:56:25.040Z,2.95
2022-10-19T04:01:45.740Z,2.88
2022-10-19T04:04:15.228Z,3.22
2022-10-19T04:06:45.334Z,2.92
2022-10-19T04:09:14.622Z,3.10
2022-10-19T04:11:42.149Z,3.30
2022-10-19T04:16:36.195Z,3.20
2022-10-19T04:19:02.741Z,3.22
2022-10-19T04:21:31.693Z,3.15
2022-10-19T04:24:01.175Z,3.00
2022-10-19T04:26:28.382Z,4.03
2022-10-19T04:28:57.809Z,3.22
2022-10-19T04:31:24.901Z,3.15
2022-10-19T04:33:51.354Z,3.40
2022-10-19T04:36:17.918Z,3.35
2022-10-19T04:38:44.437Z,3.10
2022-10-19T04:41:13.941Z,3.20
2022-10-19T04:43:40.750Z,4.95
2022-10-19T04:46:13.306Z,3.58
2022-10-19T04:48:40.779Z,2.90
2022-10-19T04:51:08.011Z,2.90
2022-10-19T04:53:35.405Z,3.00
2022-10-19T04:56:05.926Z,2.95
2022-10-19T04:58:32.480Z,2.72
2022-10-19T05:00:59.081Z,3.10
2022-10-19T05:03:25.562Z,2.92
2022-10-19T05:05:51.984Z,2.80
2022-10-19T05:08:18.461Z,3.03
2022-10-19T05:10:47.649Z,2.88
2022-10-19T05:13:14.870Z,2.92
2022-10-19T05:15:41.478Z,2.95
2022-10-19T05:18:08.028Z,3.00
2022-10-19T05:20:34.545Z,2.80
2022-10-19T05:23:06.153Z,2.72
2022-10-19T05:25:33.826Z,3.00
2022-10-19T05:28:00.313Z,3.20
2022-10-19T05:30:26.840Z,2.72
2022-10-19T05:32:53.292Z,2.80
2022-10-19T05:35:22.418Z,3.40
2022-10-19T05:37:49.270Z,3.15
2022-10-19T05:40:15.795Z,3.03
2022-10-19T05:42:42.235Z,2.88
2022-10-19T05:45:09.091Z,3.10
2022-10-19T05:47:35.808Z,3.35
2022-10-19T05:50:02.802Z,3.20
2022-10-19T05:52:29.516Z,2.65
2022-10-19T05:54:58.249Z,3.17
2022-10-19T05:57:25.574Z,2.70
2022-10-19T05:59:52.053Z,3.10
2022-10-19T06:02:20.795Z,3.10
2022-10-19T06:07:13.670Z,3.45
2022-10-19T06:09:40.238Z,3.53
2022-10-19T06:12:06.812Z,3.00
2022-10-19T06:14:33.342Z,3.03
2022-10-19T06:16:59.807Z,3.20
2022-10-19T06:19:26.334Z,2.78
2022-10-19T06:21:52.809Z,2.58
2022-10-19T06:24:19.218Z,3.17
2022-10-19T06:26:45.767Z,2.67
2022-10-19T06:29:12.363Z,2.50
2022-10-19T06:31:38.937Z,3.20
2022-10-19T06:34:05.788Z,3.40
2022-10-19T06:36:33.013Z,2.83
2022-10-19T06:39:01.582Z,3.10
2022-10-19T06:41:30.598Z,2.60
2022-10-19T06:43:57.257Z,2.80
2022-10-19T06:46:25.990Z,3.00
2022-10-19T06:51:20.730Z,2.60
2022-10-19T06:53:47.239Z,3.10
2022-10-19T06:56:14.020Z,3.00
2022-10-19T06:58:40.763Z,2.92
2022-10-19T07:01:10.119Z,3.10
2022-10-19T07:03:37.286Z,2.80
2022-10-19T07:06:06.937Z,2.90
2022-10-19T07:08:34.908Z,3.03
2022-10-19T07:11:05.157Z,2.90
2022-10-19T07:13:31.841Z,3.15
2022-10-19T07:16:05.499Z,3.00
2022-10-19T07:18:33.446Z,3.10
2022-10-19T07:21:01.989Z,2.85
2022-10-19T07:23:29.735Z,2.92
2022-10-19T07:26:01.460Z,2.50
2022-10-19T07:28:29.606Z,2.83
2022-10-19T07:30:56.431Z,2.70
2022-10-19T07:33:23.735Z,3.08
2022-10-19T07:35:50.333Z,3.05
2022-10-19T07:38:16.863Z,3.00
2022-10-19T07:40:46.423Z,3.30
2022-10-19T07:43:14.007Z,3.17
2022-10-19T07:45:40.543Z,2.80
2022-10-19T07:48:07.202Z,2.90
2022-10-19T07:50:33.809Z,2.80
2022-10-19T07:53:00.308Z,3.08
2022-10-19T07:55:26.740Z,3.22
2022-10-19T07:57:53.262Z,3.17
2022-10-19T08:00:19.725Z,3.53
2022-10-19T08:02:57.721Z,3.22
2022-10-19T08:05:26.564Z,3.33
2022-10-19T08:07:53.030Z,3.67
2022-10-19T08:10:19.517Z,3.50
2022-10-19T08:12:46.053Z,3.30
2022-10-19T08:15:12.558Z,3.30
2022-10-19T08:17:39.807Z,3.20
2022-10-19T08:20:07.721Z,2.90
2022-10-19T08:22:34.644Z,2.92
2022-10-19T08:25:04.734Z,2.67
2022-10-19T08:27:31.288Z,2.63
2022-10-19T08:29:57.843Z,2.75
2022-10-19T08:32:24.395Z,3.05
2022-10-19T08:34:50.818Z,3.10
2022-10-19T08:37:26.410Z,2.80
2022-10-19T08:40:04.283Z,2.90
2022-10-19T08:42:59.875Z,2.92
2022-10-19T08:45:37.291Z,3.00
2022-10-19T08:48:15.261Z,2.80
2022-10-19T08:50:45.263Z,2.47
2022-10-19T08:53:59.778Z,2.50
2022-10-19T08:56:50.649Z,2.53
2022-10-19T08:59:39.020Z,2.90
2022-10-19T09:02:38.060Z,2.67
2022-10-19T09:07:45.531Z,3.30
2022-10-19T09:10:17.849Z,2.88
2022-10-19T09:13:07.540Z,2.63
2022-10-19T09:15:41.476Z,2.67
2022-10-19T09:18:30.803Z,3.13
2022-10-19T09:21:08.551Z,2.90
2022-10-19T09:23:39.802Z,2.78
2022-10-19T09:26:14.934Z,2.65
2022-10-19T09:28:44.347Z,4.13
2022-10-19T09:31:19.508Z,3.03
2022-10-19T09:33:55.523Z,2.85
2022-10-19T09:36:33.229Z,3.00
2022-10-19T09:39:12.781Z,2.70
2022-10-19T09:41:55.101Z,2.50
2022-10-19T09:44:23.239Z,2.50
2022-10-19T09:47:19.981Z,2.40
2022-10-19T09:49:48.266Z,2.22
2022-10-19T09:52:34.179Z,2.40
2022-10-19T09:55:07.250Z,2.10
2022-10-19T09:57:42.926Z,2.15
2022-10-19T10:00:19.223Z,1.92
2022-10-19T10:02:50.735Z,2.30
2022-10-19T10:05:17.338Z,1.95
2022-10-19T10:07:44.507Z,1.88
2022-10-19T10:10:28.072Z,1.92
2022-10-19T10:12:59.756Z,1.50
2022-10-19T10:15:29.875Z,1.35
2022-10-19T10:17:57.228Z,1.33
2022-10-19T10:20:32.604Z,1.25
2022-10-19T10:23:04.652Z,1.40
2022-10-19T10:25:34.540Z,1.25
2022-10-19T10:28:15.192Z,1.25
2022-10-19T10:30:42.516Z,1.40
2022-10-19T10:33:33.186Z,1.30
2022-10-19T10:36:08.399Z,1.67
2022-10-19T10:38:44.876Z,1.30
2022-10-19T10:41:17.689Z,1.38
2022-10-19T10:44:04.994Z,1.30
2022-10-19T10:46:37.131Z,1.20
2022-10-19T10:49:06.866Z,1.33
2022-10-19T10:51:59.648Z,1.23
2022-10-19T10:54:29.991Z,1.17
2022-10-19T10:57:16.509Z,1.38
2022-10-19T11:00:02.238Z,1.52
2022-10-19T11:02:43.865Z,1.55
2022-10-19T11:05:17.875Z,1.20
2022-10-19T11:07:47.707Z,1.70
2022-10-19T11:10:25.505Z,1.38
2022-10-19T11:12:56.284Z,1.75
2022-10-19T11:15:27.869Z,1.20
2022-10-19T11:17:58.064Z,1.23
2022-10-19T11:20:29.583Z,1.27
2022-10-19T11:23:10.551Z,1.20
2022-10-19T11:25:49.377Z,1.25
2022-10-19T11:28:49.561Z,1.13
2022-10-19T11:31:24.675Z,1.23
2022-10-19T11:34:16.376Z,1.65
2022-10-19T11:36:58.152Z,1.10
2022-10-19T11:39:42.773Z,1.10
2022-10-19T11:42:26.388Z,1.02
2022-10-19T11:45:11.552Z,1.20
2022-10-19T11:48:09.456Z,0.95
2022-10-19T11:50:49.736Z,1.17
2022-10-19T11:54:00.233Z,1.17
2022-10-19T11:57:02.218Z,1.42
2022-10-19T12:00:08.644Z,1.10
2022-10-19T12:03:03.495Z,1.30
2022-10-19T12:05:56.219Z,1.30
2022-10-19T12:08:28.907Z,1.30
2022-10-19T12:10:55.337Z,1.33
2022-10-19T12:14:00.651Z,1.50
2022-10-19T12:16:53.061Z,1.30
2022-10-19T12:19:32.076Z,1.23
2022-10-19T12:22:01.590Z,2.05
2022-10-19T12:24:29.847Z,1.65
2022-10-19T12:26:57.686Z,1.75
2022-10-19T12:29:32.763Z,1.50
2022-10-19T12:32:00.987Z,1.80
2022-10-19T12:37:19.945Z,1.77
2022-10-19T12:40:08.126Z,1.48
2022-10-19T12:42:52.965Z,1.60
2022-10-19T12:45:25.575Z,1.80
2022-10-19T12:48:14.355Z,1.70
2022-10-19T12:50:50.021Z,1.67
2022-10-19T12:55:59.867Z,1.80
2022-10-19T12:58:29.399Z,1.70
2022-10-19T13:01:01.025Z,1.70
2022-10-19T13:03:36.381Z,1.90
2022-10-19T13:06:12.712Z,1.83
2022-10-19T13:08:56.189Z,2.03
2022-10-19T13:11:23.291Z,1.90
2022-10-19T13:14:06.575Z,1.80
2022-10-19T13:16:40.878Z,1.80
2022-10-19T13:21:54.884Z,1.80
2022-10-19T13:24:24.301Z,2.00
2022-10-19T13:26:59.897Z,1.90
2022-10-19T13:29:28.864Z,2.00
2022-10-19T13:31:55.494Z,2.10
2022-10-19T13:34:25.106Z,1.60
2022-10-19T13:37:02.823Z,1.70
2022-10-19T13:39:30.100Z,1.80
2022-10-19T13:41:57.398Z,1.88
2022-10-19T13:44:31.063Z,2.15
2022-10-19T13:47:12.671Z,1.45
2022-10-19T13:50:02.856Z,1.52
2022-10-19T13:52:41.523Z,1.30
2022-10-19T13:55:37.274Z,1.30
2022-10-19T13:58:51.399Z,1.40
2022-10-19T14:01:53.012Z,1.52
2022-10-19T14:04:28.952Z,1.42
2022-10-19T14:07:13.991Z,1.33
2022-10-19T14:10:06.502Z,1.40
2022-10-19T14:12:36.809Z,1.30
2022-10-19T14:15:19.835Z,1.00
2022-10-19T14:17:46.434Z,1.50
2022-10-19T14:20:32.896Z,1.20
2022-10-19T14:25:57.057Z,1.15
2022-10-19T14:28:24.680Z,1.15
2022-10-19T14:30:57.193Z,1.00
2022-10-19T14:33:25.519Z,1.00
2022-10-19T14:35:52.790Z,1.17
2022-10-19T14:38:25.766Z,1.00
2022-10-19T14:40:52.269Z,1.02
2022-10-19T14:43:28.847Z,1.40
2022-10-19T14:46:07.300Z,1.50
2022-10-19T14:48:35.944Z,1.10
2022-10-19T14:51:09.971Z,1.33
2022-10-19T14:53:39.865Z,1.10
2022-10-19T14:56:15.314Z,1.30
2022-10-19T14:58:54.119Z,1.20
2022-10-19T15:01:21.539Z,1.13
2022-10-19T15:03:49.871Z,1.30
2022-10-19T15:06:30.106Z,1.10
2022-10-19T15:09:04.268Z,1.13
2022-10-19T15:11:37.584Z,1.30
2022-10-19T15:14:09.745Z,1.30
2022-10-19T15:16:57.475Z,1.38
2022-10-19T15:19:41.197Z,1.85
2022-10-19T15:22:20.285Z,1.40
2022-10-19T15:24:55.805Z,1.40
2022-10-19T15:27:28.830Z,1.60
2022-10-19T15:30:18.676Z,1.42
2022-10-19T15:32:51.444Z,1.55
2022-10-19T15:35:23.259Z,1.52
2022-10-19T15:37:50.779Z,1.70
2022-10-19T15:40:25.825Z,1.38
2022-10-19T15:42:52.521Z,1.50
2022-10-19T15:45:38.112Z,1.65
2022-10-19T15:48:10.368Z,1.30
2022-10-19T15:50:42.475Z,1.58
2022-10-19T15:53:08.909Z,1.40
2022-10-19T15:55:35.508Z,1.60
2022-10-19T15:58:02.307Z,1.58
2022-10-19T16:00:29.988Z,1.52
2022-10-19T16:02:56.442Z,1.70
2022-10-19T16:05:23.218Z,1.85
2022-10-19T16:07:50.175Z,1.85
2022-10-19T16:10:20.438Z,2.38
2022-10-19T16:12:47.102Z,2.03
2022-10-19T16:15:22.237Z,2.08
2022-10-19T16:17:59.926Z,2.20
2022-10-19T16:20:28.894Z,2.13
2022-10-19T16:22:55.483Z,2.10
2022-10-19T16:25:22.015Z,2.28
2022-10-19T16:27:48.666Z,2.50
2022-10-19T16:30:15.086Z,2.30
2022-10-19T16:35:10.040Z,2.83
2022-10-19T16:37:37.140Z,3.00
2022-10-19T16:40:05.353Z,3.45
2022-10-19T16:42:32.120Z,3.10
2022-10-19T16:44:58.929Z,2.83
2022-10-19T16:47:25.545Z,2.80
2022-10-19T16:50:01.153Z,3.30
2022-10-19T16:52:29.305Z,3.75
2022-10-19T16:54:56.759Z,4.25
2022-10-19T16:57:23.366Z,3.85
2022-10-19T17:02:23.098Z,3.28
2022-10-19T17:04:49.717Z,3.60
2022-10-19T17:07:16.221Z,4.15
2022-10-19T17:09:43.369Z,3.92
2022-10-19T17:12:10.527Z,4.10
2022-10-19T17:14:39.852Z,3.67
2022-10-19T17:17:06.780Z,3.90
2022-10-19T17:19:34.092Z,3.80
2022-10-19T17:22:02.135Z,4.13
2022-10-19T17:24:29.098Z,4.68
2022-10-19T17:26:55.943Z,4.50
2022-10-19T17:29:23.196Z,4.28
2022-10-19T17:31:49.919Z,4.32
2022-10-19T17:34:16.760Z,4.50
2022-10-19T17:36:46.913Z,4.50
2022-10-19T17:39:20.392Z,4.40
2022-10-19T17:44:16.318Z,4.60
2022-10-19T17:46:42.880Z,4.88
2022-10-19T17:49:10.252Z,4.50
2022-10-19T17:51:37.959Z,5.20
2022-10-19T17:54:10.885Z,4.78
2022-10-19T17:56:38.961Z,5.10
2022-10-19T17:59:07.914Z,5.28
2022-10-19T18:01:35.021Z,5.43
2022-10-19T18:04:01.558Z,4.88
2022-10-19T18:06:33.970Z,5.18
2022-10-19T18:09:02.118Z,5.40
2022-10-19T18:11:32.024Z,4.72
2022-10-19T18:14:00.784Z,5.05
2022-10-19T18:16:37.006Z,5.30
2022-10-19T18:19:04.935Z,5.68
2022-10-19T18:21:34.901Z,5.22
2022-10-19T18:24:02.826Z,5.10
2022-10-19T18:26:31.893Z,4.90
2022-10-19T18:28:59.221Z,5.20
2022-10-19T18:31:29.372Z,5.13
2022-10-19T18:34:05.691Z,5.10
2022-10-19T18:36:33.241Z,4.90
2022-10-19T18:39:01.873Z,5.28
2022-10-19T18:41:29.767Z,4.75
2022-10-19T18:44:05.106Z,4.85
2022-10-19T18:46:36.543Z,4.60
2022-10-19T18:49:05.677Z,4.82
2022-10-19T18:51:32.720Z,5.28
2022-10-19T18:53:59.406Z,4.88
2022-10-19T18:56:26.598Z,5.05
2022-10-19T18:58:53.262Z,4.93
2022-10-19T19:01:26.854Z,4.90
2022-10-19T19:03:56.408Z,4.47
2022-10-19T19:06:30.269Z,5.00
2022-10-19T19:08:59.137Z,4.43
2022-10-19T19:11:34.269Z,5.05
2022-10-19T19:14:11.904Z,4.40
2022-10-19T19:16:39.759Z,4.70
2022-10-19T19:19:07.298Z,4.57
2022-10-19T19:21:35.556Z,4.85
2022-10-19T19:24:05.221Z,4.32
2022-10-19T19:26:34.330Z,4.95
2022-10-19T19:29:00.798Z,4.72
2022-10-19T19:31:27.452Z,4.43
2022-10-19T19:33:54.115Z,4.43
2022-10-19T19:36:20.923Z,4.45
2022-10-19T19:38:49.049Z,4.32
2022-10-19T19:41:16.417Z,4.57
2022-10-19T19:43:43.673Z,4.38
2022-10-19T19:46:16.708Z,4.95
2022-10-19T19:48:46.395Z,4.50
2022-10-19T19:51:15.427Z,4.22
2022-10-19T19:53:42.632Z,4.50
2022-10-19T19:56:11.570Z,4.28
2022-10-19T19:58:38.527Z,4.65
2022-10-19T20:01:13.593Z,4.57
2022-10-19T20:03:41.134Z,4.30
2022-10-19T20:06:08.314Z,4.22
2022-10-19T20:08:36.355Z,4.18
2022-10-19T20:11:05.777Z,4.35
2022-10-19T20:13:32.996Z,3.70
2022-10-19T20:16:02.549Z,4.63
2022-10-19T20:18:29.654Z,4.55
2022-10-19T20:21:01.188Z,4.22
2022-10-19T20:23:28.491Z,4.35
2022-10-19T20:25:56.308Z,4.88
2022-10-19T20:28:24.719Z,4.55
2022-10-19T20:33:32.722Z,5.70
2022-10-19T20:36:13.287Z,4.85
2022-10-19T20:38:40.610Z,4.45
2022-10-19T20:41:09.243Z,4.63
2022-10-19T20:43:37.424Z,4.07
2022-10-19T20:46:24.715Z,4.63
2022-10-19T20:48:52.451Z,4.22
2022-10-19T20:51:30.567Z,4.00
2022-10-19T20:54:00.535Z,3.92
2022-10-19T20:56:30.253Z,4.38
2022-10-19T21:01:31.764Z,4.50
2022-10-19T21:04:01.513Z,4.60
2022-10-19T21:06:30.163Z,4.13
2022-10-19T21:08:58.299Z,4.57
2022-10-19T21:11:27.976Z,4.15
2022-10-19T21:13:56.901Z,4.43
2022-10-19T21:16:27.462Z,4.32
2022-10-19T21:18:54.502Z,4.95
2022-10-19T21:21:24.219Z,4.40
2022-10-19T21:23:53.840Z,3.83
2022-10-19T21:26:20.634Z,4.35
2022-10-19T21:28:49.388Z,3.97
2022-10-19T21:31:17.238Z,4.25
2022-10-19T21:33:44.108Z,4.03
2022-10-19T21:36:12.078Z,4.38
2022-10-19T21:38:39.067Z,4.10
2022-10-19T21:41:08.778Z,4.10
2022-10-19T21:43:35.551Z,4.07
2022-10-19T21:46:07.286Z,4.40
2022-10-19T21:48:34.563Z,4.47
2022-10-19T21:51:10.100Z,3.58
2022-10-19T21:53:36.508Z,3.88
2022-10-19T21:56:02.991Z,4.25
2022-10-19T21:58:29.417Z,4.20
2022-10-19T22:01:04.007Z,4.63
2022-10-19T22:05:56.791Z,4.18
2022-10-19T22:08:23.371Z,4.40
2022-10-19T22:10:49.850Z,4.35
2022-10-19T22:13:16.335Z,4.50
2022-10-19T22:15:42.926Z,4.53
2022-10-19T22:18:09.426Z,4.07
2022-10-19T22:20:36.665Z,4.47
2022-10-19T22:23:04.710Z,4.88
2022-10-19T22:25:32.464Z,4.40
2022-10-19T22:27:59.272Z,4.15
2022-10-19T22:30:25.835Z,4.20
2022-10-19T22:32:52.959Z,4.28
2022-10-19T22:35:19.651Z,4.32
2022-10-19T22:37:46.251Z,4.32
2022-10-19T22:40:13.335Z,5.13
2022-10-19T22:42:39.796Z,4.50
2022-10-19T22:45:06.848Z,4.55
2022-10-19T22:47:33.300Z,4.45
2022-10-19T22:49:59.746Z,4.85
2022-10-19T22:52:26.210Z,4.55
2022-10-19T22:54:52.740Z,4.70
2022-10-19T22:57:19.195Z,4.15
2022-10-19T22:59:45.705Z,4.28
2022-10-19T23:02:12.202Z,4.18
2022-10-19T23:04:38.665Z,4.20
2022-10-19T23:07:05.233Z,4.57
2022-10-19T23:09:31.791Z,4.50
2022-10-19T23:11:58.262Z,4.40
2022-10-19T23:14:24.776Z,4.60
2022-10-19T23:16:51.253Z,4.82
2022-10-19T23:19:17.729Z,4.50
2022-10-19T23:21:44.240Z,4.82
2022-10-19T23:24:10.784Z,4.80
2022-10-19T23:26:37.492Z,4.93
2022-10-19T23:29:03.996Z,4.35
2022-10-19T23:31:31.038Z,4.10
2022-10-19T23:33:57.612Z,4.53
2022-10-19T23:36:27.048Z,4.05
2022-10-19T23:38:55.203Z,4.25
2022-10-19T23:41:22.312Z,4.35
2022-10-19T23:43:49.409Z,4.45
2022-10-19T23:46:16.237Z,4.15
2022-10-19T23:48:42.825Z,4.15
2022-10-19T23:51:18.002Z,4.10
2022-10-19T23:53:46.609Z,4.65
2022-10-19T23:56:18.396Z,4.28
2022-10-19T23:58:45.469Z,4.45
